createdAt,value
2023-03-11T00:00:25.579Z,4.83
2023-03-11T00:02:55.056Z,4.93
2023-03-11T00:05:26.824Z,5.03
2023-03-11T00:07:56.051Z,5.06
2023-03-11T00:10:33.038Z,5.10
2023-03-11T00:13:03.308Z,5.11
2023-03-11T00:15:30.940Z,5.16
2023-03-11T00:17:58.872Z,5.19
2023-03-11T00:20:32.090Z,5.17
2023-03-11T00:22:59.855Z,5.20
2023-03-11T00:25:29.536Z,5.23
2023-03-11T00:27:58.137Z,5.21
2023-03-11T00:30:26.002Z,5.03
2023-03-11T00:32:55.291Z,5.09
2023-03-11T00:35:25.849Z,5.08
2023-03-11T00:37:55.619Z,5.02
2023-03-11T00:40:25.028Z,4.95
2023-03-11T00:42:54.257Z,4.96
2023-03-11T00:45:22.110Z,4.96
2023-03-11T00:47:51.015Z,4.85
2023-03-11T00:50:20.972Z,4.88
2023-03-11T00:52:48.850Z,4.91
2023-03-11T00:55:25.207Z,4.85
2023-03-11T00:57:54.966Z,4.82
2023-03-11T01:00:24.152Z,4.83
2023-03-11T01:02:52.552Z,4.77
2023-03-11T01:05:23.681Z,4.72
2023-03-11T01:07:52.180Z,4.77
2023-03-11T01:10:20.713Z,4.48
2023-03-11T01:12:48.516Z,4.55
2023-03-11T01:15:35.972Z,4.57
2023-03-11T01:18:04.392Z,4.77
2023-03-11T01:20:35.012Z,4.77
2023-03-11T01:23:02.694Z,4.74
2023-03-11T01:25:30.381Z,4.71
2023-03-11T01:27:59.611Z,4.75
2023-03-11T01:30:28.326Z,4.73
2023-03-11T01:32:59.837Z,5.00
2023-03-11T01:35:28.537Z,5.14
2023-03-11T01:37:56.562Z,5.13
2023-03-11T01:40:29.998Z,5.20
2023-03-11T01:43:00.795Z,5.16
2023-03-11T01:45:51.322Z,5.19
2023-03-11T01:48:24.238Z,5.30
2023-03-11T01:50:52.134Z,5.28
2023-03-11T01:53:19.719Z,5.33
2023-03-11T01:55:48.584Z,5.40
2023-03-11T01:58:22.782Z,5.55
2023-03-11T02:00:50.849Z,5.55
2023-03-11T02:03:29.604Z,5.51
2023-03-11T02:05:57.851Z,5.52
2023-03-11T02:08:25.553Z,5.56
2023-03-11T02:10:55.997Z,5.47
2023-03-11T02:13:24.261Z,5.39
2023-03-11T02:15:52.180Z,5.55
2023-03-11T02:18:20.975Z,5.68
2023-03-11T02:20:57.713Z,5.48
2023-03-11T02:23:27.806Z,5.39
2023-03-11T02:26:07.303Z,5.46
2023-03-11T02:28:36.350Z,5.25
2023-03-11T02:31:04.415Z,5.36
2023-03-11T02:33:32.963Z,5.54
2023-03-11T02:36:08.200Z,5.53
2023-03-11T02:38:37.866Z,5.47
2023-03-11T02:41:05.882Z,5.55
2023-03-11T02:43:42.049Z,5.49
2023-03-11T02:46:10.811Z,5.44
2023-03-11T02:48:39.486Z,5.52
2023-03-11T02:51:07.307Z,5.46
2023-03-11T02:53:48.101Z,5.42
2023-03-11T02:56:16.582Z,5.42
2023-03-11T02:58:44.115Z,5.55
2023-03-11T03:01:11.980Z,5.37
2023-03-11T03:03:42.297Z,5.46
2023-03-11T03:06:13.027Z,5.63
2023-03-11T03:08:42.628Z,5.67
2023-03-11T03:11:10.150Z,5.61
2023-03-11T03:13:37.799Z,5.64
2023-03-11T03:16:07.180Z,5.33
2023-03-11T03:18:34.821Z,5.61
2023-03-11T03:21:07.320Z,5.43
2023-03-11T03:23:35.327Z,5.54
2023-03-11T03:26:04.013Z,5.51
2023-03-11T03:28:34.315Z,5.47
2023-03-11T03:31:09.363Z,5.57
2023-03-11T03:33:39.961Z,5.69
2023-03-11T03:36:10.063Z,5.61
2023-03-11T03:38:44.004Z,5.65
2023-03-11T03:41:14.714Z,5.57
2023-03-11T03:43:42.913Z,5.63
2023-03-11T03:46:11.735Z,5.55
2023-03-11T03:48:43.224Z,5.54
2023-03-11T03:51:12.604Z,5.52
2023-03-11T03:53:46.736Z,5.67
2023-03-11T03:56:16.791Z,5.59
2023-03-11T03:58:46.206Z,5.76
2023-03-11T04:01:13.919Z,5.65
2023-03-11T04:03:42.658Z,5.75
2023-03-11T04:06:21.710Z,5.72
2023-03-11T04:08:55.984Z,5.74
2023-03-11T04:11:29.214Z,5.82
2023-03-11T04:13:58.670Z,5.77
2023-03-11T04:16:31.333Z,5.75
2023-03-11T04:19:05.884Z,5.76
2023-03-11T04:21:34.281Z,5.74
2023-03-11T04:24:02.565Z,5.67
2023-03-11T04:26:34.488Z,5.62
2023-03-11T04:29:02.724Z,5.69
2023-03-11T04:31:34.277Z,5.73
2023-03-11T04:34:08.611Z,5.76
2023-03-11T04:36:38.498Z,5.82
2023-03-11T04:39:07.406Z,5.87
2023-03-11T04:41:43.889Z,5.95
2023-03-11T04:44:15.644Z,5.99
2023-03-11T04:46:45.945Z,5.96
2023-03-11T04:49:14.042Z,6.02
2023-03-11T04:51:41.989Z,6.07
2023-03-11T04:54:10.575Z,6.14
2023-03-11T04:56:39.049Z,6.12
2023-03-11T04:59:08.982Z,6.24
2023-03-11T05:01:39.358Z,6.31
2023-03-11T05:04:09.081Z,6.28
2023-03-11T05:06:37.161Z,6.26
2023-03-11T05:09:05.863Z,6.20
2023-03-11T05:11:36.613Z,6.51
2023-03-11T05:14:04.740Z,6.63
2023-03-11T05:16:32.644Z,6.77
2023-03-11T05:19:23.146Z,6.69
2023-03-11T05:21:52.598Z,6.86
2023-03-11T05:24:20.568Z,6.99
2023-03-11T05:26:48.688Z,7.03
2023-03-11T05:29:17.361Z,7.07
2023-03-11T05:31:45.788Z,7.22
2023-03-11T05:34:13.930Z,7.24
2023-03-11T05:36:42.483Z,7.42
2023-03-11T05:39:10.328Z,7.53
2023-03-11T05:41:39.490Z,7.59
2023-03-11T05:44:07.156Z,7.76
2023-03-11T05:46:35.824Z,7.89
2023-03-11T05:49:05.912Z,8.00
2023-03-11T05:51:37.795Z,8.02
2023-03-11T05:54:11.588Z,8.07
2023-03-11T05:56:45.062Z,8.01
2023-03-11T05:59:16.350Z,8.18
2023-03-11T06:01:46.224Z,8.19
2023-03-11T06:04:15.833Z,8.33
2023-03-11T06:06:48.829Z,8.47
2023-03-11T06:09:19.313Z,8.49
2023-03-11T06:11:46.977Z,8.65
2023-03-11T06:14:16.944Z,8.46
2023-03-11T06:16:48.813Z,8.88
2023-03-11T06:19:20.685Z,8.79
2023-03-11T06:21:51.183Z,8.55
2023-03-11T06:24:19.210Z,8.75
2023-03-11T06:26:53.399Z,8.89
2023-03-11T06:29:24.620Z,8.88
2023-03-11T06:31:52.760Z,9.08
2023-03-11T06:34:20.519Z,8.90
2023-03-11T06:36:48.278Z,9.04
2023-03-11T06:39:16.142Z,8.98
2023-03-11T06:41:47.166Z,9.08
2023-03-11T06:44:15.191Z,9.13
2023-03-11T06:46:43.328Z,9.18
2023-03-11T06:49:11.205Z,9.24
2023-03-11T06:51:41.591Z,9.33
2023-03-11T06:54:10.370Z,9.53
2023-03-11T06:56:40.415Z,9.63
2023-03-11T06:59:09.763Z,9.54
2023-03-11T07:01:37.374Z,9.42
2023-03-11T07:04:07.349Z,9.48
2023-03-11T07:06:37.578Z,9.88
2023-03-11T07:09:10.994Z,9.79
2023-03-11T07:11:43.289Z,9.74
2023-03-11T07:14:15.815Z,9.72
2023-03-11T07:16:47.981Z,9.81
2023-03-11T07:19:26.752Z,9.89
2023-03-11T07:21:54.444Z,9.73
2023-03-11T07:24:22.689Z,9.75
2023-03-11T07:26:50.968Z,9.78
2023-03-11T07:29:20.218Z,10.03
2023-03-11T07:31:49.262Z,10.23
2023-03-11T07:34:17.907Z,10.34
2023-03-11T07:36:48.662Z,10.41
2023-03-11T07:39:18.030Z,10.49
2023-03-11T07:41:46.580Z,10.54
2023-03-11T07:44:14.628Z,10.54
2023-03-11T07:46:42.466Z,10.68
2023-03-11T07:49:10.248Z,10.73
2023-03-11T07:51:39.397Z,10.74
2023-03-11T07:54:07.068Z,10.69
2023-03-11T07:56:36.013Z,10.96
2023-03-11T07:59:03.941Z,11.03
2023-03-11T08:01:36.669Z,11.10
2023-03-11T08:04:06.209Z,10.91
2023-03-11T08:06:34.486Z,10.79
2023-03-11T08:09:04.329Z,10.73
2023-03-11T08:11:33.156Z,10.82
2023-03-11T08:14:01.107Z,10.77
2023-03-11T08:16:33.183Z,11.14
2023-03-11T08:19:00.978Z,11.09
2023-03-11T08:21:30.096Z,11.12
2023-03-11T08:23:59.583Z,10.73
2023-03-11T08:26:27.336Z,10.51
2023-03-11T08:28:55.384Z,11.01
2023-03-11T08:31:25.474Z,10.77
2023-03-11T08:33:59.600Z,10.98
2023-03-11T08:36:28.098Z,10.71
2023-03-11T08:38:55.700Z,10.50
2023-03-11T08:41:23.352Z,10.79
2023-03-11T08:43:52.400Z,10.96
2023-03-11T08:46:30.590Z,10.58
2023-03-11T08:49:01.312Z,10.69
2023-03-11T08:51:31.024Z,10.73
2023-03-11T08:54:02.526Z,10.57
2023-03-11T08:56:30.597Z,10.69
2023-03-11T08:58:58.302Z,10.61
2023-03-11T09:01:26.083Z,10.68
2023-03-11T09:03:53.621Z,10.72
2023-03-11T09:06:24.672Z,10.80
2023-03-11T09:08:55.536Z,11.01
2023-03-11T09:11:23.234Z,10.87
2023-03-11T09:13:53.700Z,10.78
2023-03-11T09:16:22.522Z,10.82
2023-03-11T09:18:50.226Z,11.04
2023-03-11T09:21:22.317Z,11.11
2023-03-11T09:23:49.915Z,11.05
2023-03-11T09:26:17.570Z,10.90
2023-03-11T09:28:49.275Z,10.92
2023-03-11T09:31:17.609Z,11.06
2023-03-11T09:33:45.626Z,11.24
2023-03-11T09:36:14.934Z,11.35
2023-03-11T09:38:42.751Z,11.37
2023-03-11T09:41:19.543Z,11.26
2023-03-11T09:44:00.419Z,11.23
2023-03-11T09:47:11.997Z,11.66
2023-03-11T09:49:46.669Z,11.65
2023-03-11T09:52:16.168Z,11.77
2023-03-11T09:54:52.744Z,11.55
2023-03-11T09:57:23.586Z,11.91
2023-03-11T09:59:51.198Z,11.82
2023-03-11T10:02:20.453Z,12.07
2023-03-11T10:05:08.853Z,12.00
2023-03-11T10:07:47.519Z,12.03
2023-03-11T10:10:15.280Z,12.03
2023-03-11T10:13:15.138Z,11.75
2023-03-11T10:16:11.088Z,11.84
2023-03-11T10:19:13.840Z,11.92
2023-03-11T10:21:47.720Z,11.84
2023-03-11T10:24:25.478Z,11.97
2023-03-11T10:26:58.264Z,12.12
2023-03-11T10:29:28.256Z,11.95
2023-03-11T10:32:15.672Z,12.00
2023-03-11T10:34:46.662Z,12.20
2023-03-11T10:37:48.709Z,12.22
2023-03-11T10:40:32.188Z,12.13
2023-03-11T10:43:02.350Z,12.24
2023-03-11T10:45:37.093Z,12.25
2023-03-11T10:48:15.236Z,12.23
2023-03-11T10:51:23.092Z,12.14
2023-03-11T10:53:52.934Z,12.21
2023-03-11T10:56:33.537Z,12.29
2023-03-11T10:59:02.018Z,12.39
2023-03-11T11:01:29.862Z,12.35
2023-03-11T11:03:59.199Z,12.44
2023-03-11T11:06:29.018Z,12.32
2023-03-11T11:09:22.009Z,12.47
2023-03-11T11:12:14.454Z,12.49
2023-03-11T11:14:50.517Z,12.50
2023-03-11T11:17:24.029Z,12.70
2023-03-11T11:19:51.841Z,12.68
2023-03-11T11:22:22.690Z,12.65
2023-03-11T11:24:55.876Z,12.66
2023-03-11T11:27:27.837Z,12.66
2023-03-11T11:30:08.204Z,12.67
2023-03-11T11:32:55.900Z,12.74
2023-03-11T11:35:24.752Z,12.93
2023-03-11T11:38:01.292Z,12.85
2023-03-11T11:40:30.941Z,13.13
2023-03-11T11:43:46.457Z,12.74
2023-03-11T11:46:36.519Z,12.70
2023-03-11T11:49:25.974Z,12.70
2023-03-11T11:52:08.321Z,12.60
2023-03-11T11:54:55.084Z,12.43
2023-03-11T11:57:22.983Z,12.77
2023-03-11T11:59:50.626Z,12.69
2023-03-11T12:02:20.833Z,12.81
2023-03-11T12:05:00.593Z,12.84
2023-03-11T12:08:01.374Z,12.76
2023-03-11T12:10:47.044Z,12.49
2023-03-11T12:13:43.109Z,12.51
2023-03-11T12:16:30.370Z,12.56
2023-03-11T12:19:10.769Z,12.72
2023-03-11T12:22:00.826Z,12.68
2023-03-11T12:24:43.430Z,12.56
2023-03-11T12:27:18.796Z,12.72
2023-03-11T12:29:47.779Z,12.38
2023-03-11T12:32:32.691Z,12.50
2023-03-11T12:35:10.911Z,12.50
2023-03-11T12:37:39.031Z,12.60
2023-03-11T12:40:43.718Z,12.22
2023-03-11T12:43:36.318Z,12.43
2023-03-11T12:46:05.172Z,12.43
2023-03-11T12:48:34.751Z,12.52
2023-03-11T12:51:03.029Z,12.41
2023-03-11T12:53:48.104Z,12.22
2023-03-11T12:56:27.700Z,12.23
2023-03-11T12:59:23.270Z,12.16
2023-03-11T13:01:58.574Z,12.41
2023-03-11T13:04:29.274Z,12.40
2023-03-11T13:07:12.801Z,12.43
2023-03-11T13:09:41.511Z,12.58
2023-03-11T13:12:46.645Z,12.77
2023-03-11T13:15:18.528Z,12.71
2023-03-11T13:18:02.477Z,12.65
2023-03-11T13:20:38.944Z,12.63
2023-03-11T13:23:09.893Z,12.67
2023-03-11T13:25:40.347Z,12.67
2023-03-11T13:28:33.702Z,12.73
2023-03-11T13:31:34.697Z,12.93
2023-03-11T13:34:04.787Z,12.97
2023-03-11T13:36:38.388Z,12.84
2023-03-11T13:39:11.433Z,13.05
2023-03-11T13:41:41.945Z,12.92
2023-03-11T13:44:17.252Z,12.75
2023-03-11T13:46:49.954Z,12.79
2023-03-11T13:49:54.492Z,12.64
2023-03-11T13:52:35.107Z,12.67
2023-03-11T13:55:09.316Z,12.83
2023-03-11T13:57:37.636Z,13.07
2023-03-11T14:00:17.863Z,12.95
2023-03-11T14:02:56.099Z,12.81
2023-03-11T14:05:25.611Z,12.90
2023-03-11T14:07:53.704Z,12.85
2023-03-11T14:10:25.409Z,13.03
2023-03-11T14:13:12.482Z,13.03
2023-03-11T14:15:44.651Z,12.98
2023-03-11T14:18:28.157Z,12.93
2023-03-11T14:20:56.811Z,12.95
2023-03-11T14:23:30.422Z,13.07
2023-03-11T14:25:59.596Z,12.98
2023-03-11T14:28:27.320Z,12.90
2023-03-11T14:31:00.677Z,13.00
2023-03-11T14:33:29.357Z,12.98
2023-03-11T14:36:02.760Z,13.02
2023-03-11T14:38:32.798Z,13.20
2023-03-11T14:41:01.578Z,13.22
2023-03-11T14:43:32.601Z,13.08
2023-03-11T14:46:00.444Z,13.16
2023-03-11T14:48:30.726Z,13.21
2023-03-11T14:50:59.039Z,13.16
2023-03-11T14:53:30.162Z,13.01
2023-03-11T14:56:08.112Z,13.21
2023-03-11T14:58:51.083Z,13.18
2023-03-11T15:01:26.555Z,13.07
2023-03-11T15:04:00.234Z,13.15
2023-03-11T15:06:30.753Z,13.12
2023-03-11T15:09:07.880Z,12.93
2023-03-11T15:11:49.657Z,12.91
2023-03-11T15:14:24.061Z,13.14
2023-03-11T15:16:55.746Z,13.13
2023-03-11T15:19:34.560Z,13.28
2023-03-11T15:22:41.040Z,13.32
2023-03-11T15:25:17.897Z,13.21
2023-03-11T15:27:45.533Z,13.04
2023-03-11T15:30:21.589Z,13.09
2023-03-11T15:32:50.098Z,13.17
2023-03-11T15:35:20.604Z,12.96
2023-03-11T15:37:49.688Z,13.07
2023-03-11T15:40:42.461Z,13.16
2023-03-11T15:43:24.862Z,13.12
2023-03-11T15:45:54.486Z,13.06
2023-03-11T15:48:22.367Z,13.15
2023-03-11T15:50:53.977Z,13.11
2023-03-11T15:53:24.552Z,12.96
2023-03-11T15:55:52.796Z,12.94
2023-03-11T15:58:20.534Z,13.08
2023-03-11T16:00:52.677Z,13.09
2023-03-11T16:03:20.425Z,13.11
2023-03-11T16:05:47.938Z,12.80
2023-03-11T16:08:15.692Z,12.91
2023-03-11T16:10:43.697Z,12.88
2023-03-11T16:13:15.040Z,13.02
2023-03-11T16:15:43.600Z,12.95
2023-03-11T16:18:11.185Z,12.88
2023-03-11T16:20:46.619Z,13.07
2023-03-11T16:23:25.133Z,12.74
2023-03-11T16:25:56.186Z,12.77
2023-03-11T16:28:24.435Z,12.80
2023-03-11T16:30:52.276Z,12.71
2023-03-11T16:33:22.029Z,12.74
2023-03-11T16:35:50.139Z,12.73
2023-03-11T16:38:23.289Z,12.39
2023-03-11T16:41:02.206Z,12.65
2023-03-11T16:43:30.059Z,12.33
2023-03-11T16:45:58.878Z,12.37
2023-03-11T16:48:26.485Z,12.43
2023-03-11T16:50:54.050Z,12.52
2023-03-11T16:53:22.291Z,12.44
2023-03-11T16:55:52.074Z,12.50
2023-03-11T16:58:19.912Z,12.41
2023-03-11T17:00:49.661Z,12.43
2023-03-11T17:03:21.541Z,12.45
2023-03-11T17:05:49.901Z,12.37
2023-03-11T17:08:18.494Z,12.43
2023-03-11T17:10:46.874Z,12.47
2023-03-11T17:13:16.520Z,12.42
2023-03-11T17:15:57.779Z,12.44
2023-03-11T17:18:28.418Z,12.36
2023-03-11T17:20:56.007Z,12.50
2023-03-11T17:23:23.583Z,12.53
2023-03-11T17:25:51.160Z,12.37
2023-03-11T17:28:19.149Z,12.42
2023-03-11T17:30:46.772Z,12.35
2023-03-11T17:33:23.270Z,12.52
2023-03-11T17:35:50.843Z,12.41
2023-03-11T17:38:18.342Z,12.35
2023-03-11T17:40:46.195Z,12.55
2023-03-11T17:43:13.732Z,12.52
2023-03-11T17:45:42.661Z,12.50
2023-03-11T17:48:10.593Z,12.27
2023-03-11T17:50:39.120Z,12.50
2023-03-11T17:53:06.759Z,12.47
2023-03-11T17:55:34.535Z,12.44
2023-03-11T17:58:02.544Z,12.41
2023-03-11T18:00:30.185Z,12.45
2023-03-11T18:02:58.283Z,12.55
2023-03-11T18:05:26.019Z,12.42
2023-03-11T18:07:53.706Z,12.56
2023-03-11T18:10:21.772Z,12.52
2023-03-11T18:12:50.903Z,12.55
2023-03-11T18:15:19.579Z,12.62
2023-03-11T18:17:48.964Z,12.41
2023-03-11T18:20:16.848Z,12.71
2023-03-11T18:22:46.701Z,12.57
2023-03-11T18:25:14.893Z,12.52
2023-03-11T18:27:42.537Z,12.67
2023-03-11T18:30:11.390Z,12.86
2023-03-11T18:32:58.905Z,12.51
2023-03-11T18:35:27.035Z,12.68
2023-03-11T18:37:57.655Z,12.67
2023-03-11T18:40:27.050Z,12.68
2023-03-11T18:42:54.770Z,12.50
2023-03-11T18:45:22.811Z,12.71
2023-03-11T18:47:50.839Z,12.47
2023-03-11T18:50:21.720Z,12.61
2023-03-11T18:52:53.431Z,12.60
2023-03-11T18:55:21.080Z,12.47
2023-03-11T18:57:49.119Z,12.28
2023-03-11T19:00:22.421Z,12.57
2023-03-11T19:02:53.801Z,12.48
2023-03-11T19:05:21.783Z,12.51
2023-03-11T19:07:49.631Z,12.54
2023-03-11T19:10:20.098Z,12.54
2023-03-11T19:12:47.804Z,12.52
2023-03-11T19:15:15.477Z,12.58
2023-03-11T19:17:45.508Z,12.63
2023-03-11T19:20:15.537Z,12.56
2023-03-11T19:22:43.131Z,12.55
2023-03-11T19:25:10.683Z,12.22
2023-03-11T19:27:40.357Z,12.34
2023-03-11T19:30:09.973Z,12.23
2023-03-11T19:32:55.481Z,12.17
2023-03-11T19:35:23.515Z,12.17
2023-03-11T19:37:57.434Z,12.02
2023-03-11T19:40:25.185Z,12.04
2023-03-11T19:42:52.791Z,11.99
2023-03-11T19:45:21.299Z,12.00
2023-03-11T19:47:51.585Z,12.01
2023-03-11T19:50:19.269Z,12.02
2023-03-11T19:52:49.322Z,12.09
2023-03-11T19:55:17.048Z,12.01
2023-03-11T19:57:45.189Z,12.07
2023-03-11T20:00:13.195Z,11.86
2023-03-11T20:02:41.803Z,11.74
2023-03-11T20:05:10.038Z,11.81
2023-03-11T20:07:37.644Z,11.86
2023-03-11T20:10:06.407Z,11.88
2023-03-11T20:12:34.618Z,11.88
2023-03-11T20:15:03.281Z,11.83
2023-03-11T20:17:32.024Z,11.80
2023-03-11T20:20:00.356Z,11.80
2023-03-11T20:22:28.373Z,11.97
2023-03-11T20:24:56.498Z,11.94
2023-03-11T20:27:24.103Z,12.14
2023-03-11T20:29:51.843Z,12.00
2023-03-11T20:32:20.347Z,12.12
2023-03-11T20:34:48.055Z,12.39
2023-03-11T20:37:18.300Z,12.07
2023-03-11T20:39:46.220Z,12.35
2023-03-11T20:42:13.822Z,12.13
2023-03-11T20:44:46.146Z,12.05
2023-03-11T20:47:14.503Z,12.22
2023-03-11T20:49:44.301Z,12.31
2023-03-11T20:52:13.442Z,12.32
2023-03-11T20:54:45.652Z,12.45
2023-03-11T20:57:14.619Z,12.40
2023-03-11T20:59:42.177Z,12.60
2023-03-11T21:02:11.602Z,12.44
2023-03-11T21:04:41.326Z,12.47
2023-03-11T21:07:09.013Z,12.51
2023-03-11T21:09:37.807Z,12.35
2023-03-11T21:12:05.913Z,12.43
2023-03-11T21:14:33.653Z,12.46
2023-03-11T21:17:01.421Z,12.55
2023-03-11T21:19:29.448Z,12.40
2023-03-11T21:21:57.649Z,12.36
2023-03-11T21:24:25.278Z,12.44
2023-03-11T21:26:52.875Z,12.27
2023-03-11T21:29:23.164Z,12.19
2023-03-11T21:31:50.796Z,12.17
2023-03-11T21:34:18.427Z,12.11
2023-03-11T21:36:46.795Z,12.28
2023-03-11T21:39:15.496Z,12.27
2023-03-11T21:41:43.082Z,12.27
2023-03-11T21:44:10.808Z,12.52
2023-03-11T21:46:38.903Z,12.33
2023-03-11T21:49:06.848Z,12.21
2023-03-11T21:51:35.727Z,12.41
2023-03-11T21:54:05.470Z,12.29
2023-03-11T21:56:35.207Z,12.42
2023-03-11T21:59:03.983Z,12.45
2023-03-11T22:01:34.259Z,12.52
2023-03-11T22:04:03.093Z,12.47
2023-03-11T22:06:33.659Z,12.62
2023-03-11T22:09:01.740Z,12.18
2023-03-11T22:11:31.107Z,12.40
2023-03-11T22:14:00.938Z,12.35
2023-03-11T22:16:28.956Z,12.26
2023-03-11T22:18:56.686Z,12.11
2023-03-11T22:21:24.306Z,12.25
2023-03-11T22:23:51.877Z,12.16
2023-03-11T22:26:20.313Z,12.05
2023-03-11T22:28:47.972Z,11.96
2023-03-11T22:31:15.791Z,12.09
2023-03-11T22:33:43.676Z,12.09
2023-03-11T22:36:11.420Z,12.17
2023-03-11T22:38:42.301Z,12.09
2023-03-11T22:41:09.907Z,12.13
2023-03-11T22:43:38.029Z,12.04
2023-03-11T22:46:05.982Z,12.05
2023-03-11T22:48:33.892Z,11.98
2023-03-11T22:51:02.153Z,12.07
2023-03-11T22:53:31.046Z,12.09
2023-03-11T22:55:58.641Z,12.21
2023-03-11T22:58:26.368Z,12.07
2023-03-11T23:00:53.980Z,12.07
2023-03-11T23:03:21.553Z,11.99
2023-03-11T23:05:49.191Z,11.79
2023-03-11T23:08:17.859Z,11.75
2023-03-11T23:10:46.816Z,11.97
2023-03-11T23:13:15.280Z,12.11
2023-03-11T23:15:43.692Z,11.73
2023-03-11T23:18:15.991Z,11.96
2023-03-11T23:20:43.797Z,11.89
2023-03-11T23:23:12.225Z,11.90
2023-03-11T23:25:40.666Z,11.89
2023-03-11T23:28:09.854Z,11.85
2023-03-11T23:30:37.590Z,12.05
2023-03-11T23:33:06.265Z,12.12
2023-03-11T23:35:34.177Z,12.00
2023-03-11T23:38:01.721Z,12.05
2023-03-11T23:40:29.649Z,11.95
2023-03-11T23:42:57.725Z,12.08
2023-03-11T23:45:25.476Z,12.18
2023-03-11T23:47:53.257Z,11.96
2023-03-11T23:50:21.225Z,12.06
2023-03-11T23:52:49.603Z,12.18
2023-03-11T23:55:17.539Z,12.24
2023-03-11T23:57:46.102Z,12.01
